sensor_id;sensor_type;location;lat;lon;timestamp;P1;P2;P0
69123;PMS5003;56232;53.384;-2.732;2024-01-30T00:02:16;9;9;
69123;PMS5003;56232;53.384;-2.732;2024-01-30T00:04:41;11;11;
69123;PMS5003;56232;53.384;-2.732;2024-01-30T00:07:07;8;8;
69123;PMS5003;56232;53.384;-2.732;2024-01-30T00:09:33;9;9;
69123;PMS5003;56232;53.384;-2.732;2024-01-30T00:11:58;8;8;
69123;PMS5003;56232;53.384;-2.732;2024-01-30T00:14:24;9;9;
69123;PMS5003;56232;53.384;-2.732;2024-01-30T00:16:50;8;8;
69123;PMS5003;56232;53.384;-2.732;2024-01-30T00:19:16;10;10;
69123;PMS5003;56232;53.384;-2.732;2024-01-30T00:21:41;8;8;
69123;PMS5003;56232;53.384;-2.732;2024-01-30T00:24:07;7;6;
69123;PMS5003;56232;53.384;-2.732;2024-01-30T00:26:32;9;8;
69123;PMS5003;56232;53.384;-2.732;2024-01-30T00:28:58;10;10;
69123;PMS5003;56232;53.384;-2.732;2024-01-30T00:31:24;8;8;
69123;PMS5003;56232;53.384;-2.732;2024-01-30T00:33:49;9;9;
69123;PMS5003;56232;53.384;-2.732;2024-01-30T00:36:15;7;7;
69123;PMS5003;56232;53.384;-2.732;2024-01-30T00:38:41;5;5;
69123;PMS5003;56232;53.384;-2.732;2024-01-30T00:41:07;6;6;
69123;PMS5003;56232;53.384;-2.732;2024-01-30T00:43:32;7;7;
69123;PMS5003;56232;53.384;-2.732;2024-01-30T00:45:58;5;4;
69123;PMS5003;56232;53.384;-2.732;2024-01-30T00:48:24;5;5;
69123;PMS5003;56232;53.384;-2.732;2024-01-30T00:50:49;5;5;
69123;PMS5003;56232;53.384;-2.732;2024-01-30T00:53:15;4;4;
69123;PMS5003;56232;53.384;-2.732;2024-01-30T00:55:41;3;3;
69123;PMS5003;56232;53.384;-2.732;2024-01-30T00:58:07;4;4;
69123;PMS5003;56232;53.384;-2.732;2024-01-30T01:00:32;4;4;
69123;PMS5003;56232;53.384;-2.732;2024-01-30T01:02:58;3;3;
69123;PMS5003;56232;53.384;-2.732;2024-01-30T01:05:24;4;4;
69123;PMS5003;56232;53.384;-2.732;2024-01-30T01:07:49;3;3;
69123;PMS5003;56232;53.384;-2.732;2024-01-30T01:10:16;3;3;
69123;PMS5003;56232;53.384;-2.732;2024-01-30T01:12:41;4;4;
69123;PMS5003;56232;53.384;-2.732;2024-01-30T01:15:07;4;4;
69123;PMS5003;56232;53.384;-2.732;2024-01-30T01:17:32;2;2;
69123;PMS5003;56232;53.384;-2.732;2024-01-30T01:19:58;3;3;
69123;PMS5003;56232;53.384;-2.732;2024-01-30T01:22:24;4;4;
69123;PMS5003;56232;53.384;-2.732;2024-01-30T01:24:49;4;4;
69123;PMS5003;56232;53.384;-2.732;2024-01-30T01:27:15;3;3;
69123;PMS5003;56232;53.384;-2.732;2024-01-30T01:29:41;3;3;
69123;PMS5003;56232;53.384;-2.732;2024-01-30T01:32:07;3;3;
69123;PMS5003;56232;53.384;-2.732;2024-01-30T01:34:32;3;3;
69123;PMS5003;56232;53.384;-2.732;2024-01-30T01:36:58;3;3;
69123;PMS5003;56232;53.384;-2.732;2024-01-30T01:39:23;3;3;
69123;PMS5003;56232;53.384;-2.732;2024-01-30T01:41:49;5;5;
69123;PMS5003;56232;53.384;-2.732;2024-01-30T01:44:15;4;4;
69123;PMS5003;56232;53.384;-2.732;2024-01-30T01:46:40;3;3;
69123;PMS5003;56232;53.384;-2.732;2024-01-30T01:49:06;6;6;
69123;PMS5003;56232;53.384;-2.732;2024-01-30T01:51:34;4;4;
69123;PMS5003;56232;53.384;-2.732;2024-01-30T01:53:58;5;5;
69123;PMS5003;56232;53.384;-2.732;2024-01-30T01:56:23;6;5;
69123;PMS5003;56232;53.384;-2.732;2024-01-30T01:58:49;9;6;
69123;PMS5003;56232;53.384;-2.732;2024-01-30T02:01:14;4;4;
69123;PMS5003;56232;53.384;-2.732;2024-01-30T02:03:40;5;4;
69123;PMS5003;56232;53.384;-2.732;2024-01-30T02:06:05;3;3;
69123;PMS5003;56232;53.384;-2.732;2024-01-30T02:08:31;3;3;
69123;PMS5003;56232;53.384;-2.732;2024-01-30T02:10:56;3;3;
69123;PMS5003;56232;53.384;-2.732;2024-01-30T02:13:22;3;3;
69123;PMS5003;56232;53.384;-2.732;2024-01-30T02:15:48;4;3;
69123;PMS5003;56232;53.384;-2.732;2024-01-30T02:18:14;3;3;
69123;PMS5003;56232;53.384;-2.732;2024-01-30T02:20:40;5;4;
69123;PMS5003;56232;53.384;-2.732;2024-01-30T02:23:05;5;4;
69123;PMS5003;56232;53.384;-2.732;2024-01-30T02:25:31;3;3;
69123;PMS5003;56232;53.384;-2.732;2024-01-30T02:27:56;2;2;
69123;PMS5003;56232;53.384;-2.732;2024-01-30T02:30:22;4;4;
69123;PMS5003;56232;53.384;-2.732;2024-01-30T02:32:48;5;5;
69123;PMS5003;56232;53.384;-2.732;2024-01-30T02:35:13;5;5;
69123;PMS5003;56232;53.384;-2.732;2024-01-30T02:37:40;7;6;
69123;PMS5003;56232;53.384;-2.732;2024-01-30T02:40:05;7;6;
69123;PMS5003;56232;53.384;-2.732;2024-01-30T02:42:31;7;7;
69123;PMS5003;56232;53.384;-2.732;2024-01-30T02:44:56;9;9;
69123;PMS5003;56232;53.384;-2.732;2024-01-30T02:47:22;7;7;
69123;PMS5003;56232;53.384;-2.732;2024-01-30T02:49:48;9;9;
69123;PMS5003;56232;53.384;-2.732;2024-01-30T02:52:13;8;7;
69123;PMS5003;56232;53.384;-2.732;2024-01-30T02:54:40;12;11;
69123;PMS5003;56232;53.384;-2.732;2024-01-30T02:57:05;7;6;
69123;PMS5003;56232;53.384;-2.732;2024-01-30T02:59:31;7;7;
69123;PMS5003;56232;53.384;-2.732;2024-01-30T03:01:56;4;4;
69123;PMS5003;56232;53.384;-2.732;2024-01-30T03:04:22;6;6;
69123;PMS5003;56232;53.384;-2.732;2024-01-30T03:06:48;6;5;
69123;PMS5003;56232;53.384;-2.732;2024-01-30T03:09:13;6;6;
69123;PMS5003;56232;53.384;-2.732;2024-01-30T03:11:39;5;5;
69123;PMS5003;56232;53.384;-2.732;2024-01-30T03:14:04;7;7;
69123;PMS5003;56232;53.384;-2.732;2024-01-30T03:16:30;7;7;
69123;PMS5003;56232;53.384;-2.732;2024-01-30T03:18:56;5;5;
69123;PMS5003;56232;53.384;-2.732;2024-01-30T03:21:21;4;4;
69123;PMS5003;56232;53.384;-2.732;2024-01-30T03:23:47;4;4;
69123;PMS5003;56232;53.384;-2.732;2024-01-30T03:26:13;6;5;
69123;PMS5003;56232;53.384;-2.732;2024-01-30T03:28:39;6;6;
69123;PMS5003;56232;53.384;-2.732;2024-01-30T03:31:04;4;4;
69123;PMS5003;56232;53.384;-2.732;2024-01-30T03:33:30;4;4;
69123;PMS5003;56232;53.384;-2.732;2024-01-30T03:35:56;4;4;
69123;PMS5003;56232;53.384;-2.732;2024-01-30T03:38:21;5;5;
69123;PMS5003;56232;53.384;-2.732;2024-01-30T03:40:47;5;4;
69123;PMS5003;56232;53.384;-2.732;2024-01-30T03:43:13;6;5;
69123;PMS5003;56232;53.384;-2.732;2024-01-30T03:45:39;5;5;
69123;PMS5003;56232;53.384;-2.732;2024-01-30T03:48:05;5;5;
69123;PMS5003;56232;53.384;-2.732;2024-01-30T03:50:30;4;4;
69123;PMS5003;56232;53.384;-2.732;2024-01-30T03:52:56;8;7;
69123;PMS5003;56232;53.384;-2.732;2024-01-30T03:55:21;4;4;
69123;PMS5003;56232;53.384;-2.732;2024-01-30T03:57:47;4;4;
69123;PMS5003;56232;53.384;-2.732;2024-01-30T04:00:14;5;5;
69123;PMS5003;56232;53.384;-2.732;2024-01-30T04:02:39;5;4;
69123;PMS5003;56232;53.384;-2.732;2024-01-30T04:05:04;6;6;
69123;PMS5003;56232;53.384;-2.732;2024-01-30T04:07:30;5;4;
69123;PMS5003;56232;53.384;-2.732;2024-01-30T04:09:56;4;4;
69123;PMS5003;56232;53.384;-2.732;2024-01-30T04:12:21;3;3;
69123;PMS5003;56232;53.384;-2.732;2024-01-30T04:14:47;3;3;
69123;PMS5003;56232;53.384;-2.732;2024-01-30T04:17:13;2;2;
69123;PMS5003;56232;53.384;-2.732;2024-01-30T04:19:39;2;2;
69123;PMS5003;56232;53.384;-2.732;2024-01-30T04:22:04;1;1;
69123;PMS5003;56232;53.384;-2.732;2024-01-30T04:24:30;2;2;
69123;PMS5003;56232;53.384;-2.732;2024-01-30T04:26:55;2;2;
69123;PMS5003;56232;53.384;-2.732;2024-01-30T04:29:21;2;2;
69123;PMS5003;56232;53.384;-2.732;2024-01-30T04:31:47;1;1;
69123;PMS5003;56232;53.384;-2.732;2024-01-30T04:34:13;1;1;
69123;PMS5003;56232;53.384;-2.732;2024-01-30T04:36:39;2;2;
69123;PMS5003;56232;53.384;-2.732;2024-01-30T04:39:04;2;2;
69123;PMS5003;56232;53.384;-2.732;2024-01-30T04:41:30;2;1;
69123;PMS5003;56232;53.384;-2.732;2024-01-30T04:43:55;1;1;
69123;PMS5003;56232;53.384;-2.732;2024-01-30T04:46:21;1;1;
69123;PMS5003;56232;53.384;-2.732;2024-01-30T04:48:47;1;1;
69123;PMS5003;56232;53.384;-2.732;2024-01-30T04:51:13;1;1;
69123;PMS5003;56232;53.384;-2.732;2024-01-30T04:53:39;1;0;
69123;PMS5003;56232;53.384;-2.732;2024-01-30T04:56:04;1;1;
69123;PMS5003;56232;53.384;-2.732;2024-01-30T04:58:30;1;1;
69123;PMS5003;56232;53.384;-2.732;2024-01-30T05:00:55;0;0;
69123;PMS5003;56232;53.384;-2.732;2024-01-30T05:03:21;1;1;
69123;PMS5003;56232;53.384;-2.732;2024-01-30T05:05:47;0;0;
69123;PMS5003;56232;53.384;-2.732;2024-01-30T05:08:13;0;0;
69123;PMS5003;56232;53.384;-2.732;2024-01-30T05:10:39;1;1;
69123;PMS5003;56232;53.384;-2.732;2024-01-30T05:13:04;1;1;
69123;PMS5003;56232;53.384;-2.732;2024-01-30T05:15:30;0;0;
69123;PMS5003;56232;53.384;-2.732;2024-01-30T05:17:56;0;0;
69123;PMS5003;56232;53.384;-2.732;2024-01-30T05:20:21;0;0;
69123;PMS5003;56232;53.384;-2.732;2024-01-30T05:22:47;1;1;
69123;PMS5003;56232;53.384;-2.732;2024-01-30T05:25:13;1;1;
69123;PMS5003;56232;53.384;-2.732;2024-01-30T05:27:39;1;1;
69123;PMS5003;56232;53.384;-2.732;2024-01-30T05:30:05;1;1;
69123;PMS5003;56232;53.384;-2.732;2024-01-30T05:32:30;2;1;
69123;PMS5003;56232;53.384;-2.732;2024-01-30T05:34:56;1;1;
69123;PMS5003;56232;53.384;-2.732;2024-01-30T05:37:22;2;2;
69123;PMS5003;56232;53.384;-2.732;2024-01-30T05:39:47;2;2;
69123;PMS5003;56232;53.384;-2.732;2024-01-30T05:42:13;2;2;
69123;PMS5003;56232;53.384;-2.732;2024-01-30T05:44:39;1;1;
69123;PMS5003;56232;53.384;-2.732;2024-01-30T05:47:05;3;3;
69123;PMS5003;56232;53.384;-2.732;2024-01-30T05:49:30;2;2;
69123;PMS5003;56232;53.384;-2.732;2024-01-30T05:51:56;1;1;
69123;PMS5003;56232;53.384;-2.732;2024-01-30T05:54:22;2;2;
69123;PMS5003;56232;53.384;-2.732;2024-01-30T05:56:47;3;3;
69123;PMS5003;56232;53.384;-2.732;2024-01-30T05:59:13;2;2;
69123;PMS5003;56232;53.384;-2.732;2024-01-30T06:04:04;3;3;
69123;PMS5003;56232;53.384;-2.732;2024-01-30T06:06:30;2;2;
69123;PMS5003;56232;53.384;-2.732;2024-01-30T06:08:56;3;3;
69123;PMS5003;56232;53.384;-2.732;2024-01-30T06:11:21;3;3;
69123;PMS5003;56232;53.384;-2.732;2024-01-30T06:13:47;3;3;
69123;PMS5003;56232;53.384;-2.732;2024-01-30T06:16:13;2;1;
69123;PMS5003;56232;53.384;-2.732;2024-01-30T06:18:39;1;1;
69123;PMS5003;56232;53.384;-2.732;2024-01-30T06:21:04;2;1;
69123;PMS5003;56232;53.384;-2.732;2024-01-30T06:23:30;1;1;
69123;PMS5003;56232;53.384;-2.732;2024-01-30T06:25:56;1;1;
69123;PMS5003;56232;53.384;-2.732;2024-01-30T06:28:21;2;2;
69123;PMS5003;56232;53.384;-2.732;2024-01-30T06:30:47;1;1;
69123;PMS5003;56232;53.384;-2.732;2024-01-30T06:33:13;2;2;
69123;PMS5003;56232;53.384;-2.732;2024-01-30T06:35:40;1;1;
69123;PMS5003;56232;53.384;-2.732;2024-01-30T06:38:04;6;3;
69123;PMS5003;56232;53.384;-2.732;2024-01-30T06:40:29;6;4;
69123;PMS5003;56232;53.384;-2.732;2024-01-30T06:42:54;1;1;
69123;PMS5003;56232;53.384;-2.732;2024-01-30T06:45:20;1;1;
69123;PMS5003;56232;53.384;-2.732;2024-01-30T06:47:46;1;1;
69123;PMS5003;56232;53.384;-2.732;2024-01-30T06:50:12;2;2;
69123;PMS5003;56232;53.384;-2.732;2024-01-30T06:52:37;2;2;
69123;PMS5003;56232;53.384;-2.732;2024-01-30T06:55:03;2;2;
69123;PMS5003;56232;53.384;-2.732;2024-01-30T06:57:29;2;2;
69123;PMS5003;56232;53.384;-2.732;2024-01-30T06:59:55;3;2;
69123;PMS5003;56232;53.384;-2.732;2024-01-30T07:02:20;2;2;
69123;PMS5003;56232;53.384;-2.732;2024-01-30T07:04:46;2;2;
69123;PMS5003;56232;53.384;-2.732;2024-01-30T07:07:12;2;1;
69123;PMS5003;56232;53.384;-2.732;2024-01-30T07:09:38;1;1;
69123;PMS5003;56232;53.384;-2.732;2024-01-30T07:12:03;1;1;
69123;PMS5003;56232;53.384;-2.732;2024-01-30T07:14:29;3;1;
69123;PMS5003;56232;53.384;-2.732;2024-01-30T07:16:55;1;1;
69123;PMS5003;56232;53.384;-2.732;2024-01-30T07:19:20;2;2;
69123;PMS5003;56232;53.384;-2.732;2024-01-30T07:21:46;1;1;
69123;PMS5003;56232;53.384;-2.732;2024-01-30T07:24:12;2;2;
69123;PMS5003;56232;53.384;-2.732;2024-01-30T07:26:39;2;2;
69123;PMS5003;56232;53.384;-2.732;2024-01-30T07:29:03;1;1;
69123;PMS5003;56232;53.384;-2.732;2024-01-30T07:31:29;2;2;
69123;PMS5003;56232;53.384;-2.732;2024-01-30T07:33:55;3;2;
69123;PMS5003;56232;53.384;-2.732;2024-01-30T07:36:21;2;2;
69123;PMS5003;56232;53.384;-2.732;2024-01-30T07:38:46;3;2;
69123;PMS5003;56232;53.384;-2.732;2024-01-30T07:41:12;4;4;
69123;PMS5003;56232;53.384;-2.732;2024-01-30T07:43:38;3;3;
69123;PMS5003;56232;53.384;-2.732;2024-01-30T07:46:03;3;3;
69123;PMS5003;56232;53.384;-2.732;2024-01-30T07:48:29;3;2;
69123;PMS5003;56232;53.384;-2.732;2024-01-30T07:50:55;2;2;
69123;PMS5003;56232;53.384;-2.732;2024-01-30T07:53:21;2;2;
69123;PMS5003;56232;53.384;-2.732;2024-01-30T07:55:51;3;2;
69123;PMS5003;56232;53.384;-2.732;2024-01-30T07:58:12;2;2;
69123;PMS5003;56232;53.384;-2.732;2024-01-30T08:00:38;2;2;
69123;PMS5003;56232;53.384;-2.732;2024-01-30T08:03:04;1;1;
69123;PMS5003;56232;53.384;-2.732;2024-01-30T08:05:29;2;2;
69123;PMS5003;56232;53.384;-2.732;2024-01-30T08:07:55;2;2;
69123;PMS5003;56232;53.384;-2.732;2024-01-30T08:10:21;2;2;
69123;PMS5003;56232;53.384;-2.732;2024-01-30T08:12:46;2;2;
69123;PMS5003;56232;53.384;-2.732;2024-01-30T08:15:12;1;1;
69123;PMS5003;56232;53.384;-2.732;2024-01-30T08:17:38;1;1;
69123;PMS5003;56232;53.384;-2.732;2024-01-30T08:20:04;1;1;
69123;PMS5003;56232;53.384;-2.732;2024-01-30T08:22:29;1;1;
69123;PMS5003;56232;53.384;-2.732;2024-01-30T08:24:55;3;2;
69123;PMS5003;56232;53.384;-2.732;2024-01-30T08:27:21;1;1;
69123;PMS5003;56232;53.384;-2.732;2024-01-30T08:29:47;1;1;
69123;PMS5003;56232;53.384;-2.732;2024-01-30T08:32:12;1;1;
69123;PMS5003;56232;53.384;-2.732;2024-01-30T08:34:38;1;1;
69123;PMS5003;56232;53.384;-2.732;2024-01-30T08:37:04;0;0;
69123;PMS5003;56232;53.384;-2.732;2024-01-30T08:39:30;0;0;
69123;PMS5003;56232;53.384;-2.732;2024-01-30T08:41:55;1;1;
69123;PMS5003;56232;53.384;-2.732;2024-01-30T08:44:21;2;1;
69123;PMS5003;56232;53.384;-2.732;2024-01-30T08:46:47;1;0;
69123;PMS5003;56232;53.384;-2.732;2024-01-30T08:49:13;2;2;
69123;PMS5003;56232;53.384;-2.732;2024-01-30T08:51:39;1;1;
69123;PMS5003;56232;53.384;-2.732;2024-01-30T08:54:04;2;2;
69123;PMS5003;56232;53.384;-2.732;2024-01-30T08:56:30;1;1;
69123;PMS5003;56232;53.384;-2.732;2024-01-30T08:58:56;2;1;
69123;PMS5003;56232;53.384;-2.732;2024-01-30T09:01:21;1;1;
69123;PMS5003;56232;53.384;-2.732;2024-01-30T09:03:47;1;1;
69123;PMS5003;56232;53.384;-2.732;2024-01-30T09:06:13;2;2;
69123;PMS5003;56232;53.384;-2.732;2024-01-30T09:08:39;2;1;
69123;PMS5003;56232;53.384;-2.732;2024-01-30T09:11:08;1;1;
69123;PMS5003;56232;53.384;-2.732;2024-01-30T09:13:30;1;1;
69123;PMS5003;56232;53.384;-2.732;2024-01-30T09:15:56;2;2;
69123;PMS5003;56232;53.384;-2.732;2024-01-30T09:18:21;3;1;
69123;PMS5003;56232;53.384;-2.732;2024-01-30T09:20:47;2;2;
69123;PMS5003;56232;53.384;-2.732;2024-01-30T09:23:13;1;0;
69123;PMS5003;56232;53.384;-2.732;2024-01-30T09:25:39;2;2;
69123;PMS5003;56232;53.384;-2.732;2024-01-30T09:28:05;1;0;
69123;PMS5003;56232;53.384;-2.732;2024-01-30T09:30:30;0;0;
69123;PMS5003;56232;53.384;-2.732;2024-01-30T09:32:56;0;0;
69123;PMS5003;56232;53.384;-2.732;2024-01-30T09:35:21;0;0;
69123;PMS5003;56232;53.384;-2.732;2024-01-30T09:37:47;1;1;
69123;PMS5003;56232;53.384;-2.732;2024-01-30T09:40:13;0;0;
69123;PMS5003;56232;53.384;-2.732;2024-01-30T09:42:39;0;0;
69123;PMS5003;56232;53.384;-2.732;2024-01-30T09:45:04;1;0;
69123;PMS5003;56232;53.384;-2.732;2024-01-30T09:47:31;2;1;
69123;PMS5003;56232;53.384;-2.732;2024-01-30T09:49:55;1;1;
69123;PMS5003;56232;53.384;-2.732;2024-01-30T09:52:21;1;1;
69123;PMS5003;56232;53.384;-2.732;2024-01-30T09:54:47;0;0;
69123;PMS5003;56232;53.384;-2.732;2024-01-30T09:57:12;2;0;
69123;PMS5003;56232;53.384;-2.732;2024-01-30T09:59:38;2;1;
69123;PMS5003;56232;53.384;-2.732;2024-01-30T10:02:04;1;0;
69123;PMS5003;56232;53.384;-2.732;2024-01-30T10:04:29;1;1;
69123;PMS5003;56232;53.384;-2.732;2024-01-30T10:06:55;1;1;
69123;PMS5003;56232;53.384;-2.732;2024-01-30T10:09:21;2;1;
69123;PMS5003;56232;53.384;-2.732;2024-01-30T10:11:48;0;0;
69123;PMS5003;56232;53.384;-2.732;2024-01-30T10:14:12;2;1;
69123;PMS5003;56232;53.384;-2.732;2024-01-30T10:16:38;1;1;
69123;PMS5003;56232;53.384;-2.732;2024-01-30T10:19:04;0;0;
69123;PMS5003;56232;53.384;-2.732;2024-01-30T10:21:30;0;0;
69123;PMS5003;56232;53.384;-2.732;2024-01-30T10:23:55;0;0;
69123;PMS5003;56232;53.384;-2.732;2024-01-30T10:26:21;1;1;
69123;PMS5003;56232;53.384;-2.732;2024-01-30T10:28:47;2;2;
69123;PMS5003;56232;53.384;-2.732;2024-01-30T10:31:16;0;0;
69123;PMS5003;56232;53.384;-2.732;2024-01-30T10:33:38;0;0;
69123;PMS5003;56232;53.384;-2.732;2024-01-30T10:36:04;0;0;
69123;PMS5003;56232;53.384;-2.732;2024-01-30T10:38:30;1;1;
69123;PMS5003;56232;53.384;-2.732;2024-01-30T10:40:56;0;0;
69123;PMS5003;56232;53.384;-2.732;2024-01-30T10:43:21;1;1;
69123;PMS5003;56232;53.384;-2.732;2024-01-30T10:45:47;1;1;
69123;PMS5003;56232;53.384;-2.732;2024-01-30T10:48:12;1;1;
69123;PMS5003;56232;53.384;-2.732;2024-01-30T10:50:38;1;1;
69123;PMS5003;56232;53.384;-2.732;2024-01-30T10:53:04;2;1;
69123;PMS5003;56232;53.384;-2.732;2024-01-30T10:55:29;1;1;
69123;PMS5003;56232;53.384;-2.732;2024-01-30T10:57:55;3;2;
69123;PMS5003;56232;53.384;-2.732;2024-01-30T11:00:21;2;1;
69123;PMS5003;56232;53.384;-2.732;2024-01-30T11:02:47;4;4;
69123;PMS5003;56232;53.384;-2.732;2024-01-30T11:05:12;3;3;
69123;PMS5003;56232;53.384;-2.732;2024-01-30T11:07:38;4;3;
69123;PMS5003;56232;53.384;-2.732;2024-01-30T11:10:04;2;2;
69123;PMS5003;56232;53.384;-2.732;2024-01-30T11:12:30;3;2;
69123;PMS5003;56232;53.384;-2.732;2024-01-30T11:17:21;4;3;
69123;PMS5003;56232;53.384;-2.732;2024-01-30T11:19:47;3;3;
69123;PMS5003;56232;53.384;-2.732;2024-01-30T11:22:12;3;3;
69123;PMS5003;56232;53.384;-2.732;2024-01-30T11:24:39;4;4;
69123;PMS5003;56232;53.384;-2.732;2024-01-30T11:27:07;2;2;
69123;PMS5003;56232;53.384;-2.732;2024-01-30T11:29:29;4;3;
69123;PMS5003;56232;53.384;-2.732;2024-01-30T11:31:55;4;4;
69123;PMS5003;56232;53.384;-2.732;2024-01-30T11:34:21;3;2;
69123;PMS5003;56232;53.384;-2.732;2024-01-30T11:36:48;3;3;
69123;PMS5003;56232;53.384;-2.732;2024-01-30T11:39:12;4;4;
69123;PMS5003;56232;53.384;-2.732;2024-01-30T11:41:38;5;5;
69123;PMS5003;56232;53.384;-2.732;2024-01-30T11:44:04;5;5;
69123;PMS5003;56232;53.384;-2.732;2024-01-30T11:46:29;8;6;
69123;PMS5003;56232;53.384;-2.732;2024-01-30T11:48:55;7;7;
69123;PMS5003;56232;53.384;-2.732;2024-01-30T11:51:21;5;5;
69123;PMS5003;56232;53.384;-2.732;2024-01-30T11:53:49;5;5;
69123;PMS5003;56232;53.384;-2.732;2024-01-30T11:56:12;5;4;
69123;PMS5003;56232;53.384;-2.732;2024-01-30T11:58:38;5;4;
69123;PMS5003;56232;53.384;-2.732;2024-01-30T12:01:04;3;3;
69123;PMS5003;56232;53.384;-2.732;2024-01-30T12:03:29;4;3;
69123;PMS5003;56232;53.384;-2.732;2024-01-30T12:05:55;4;4;
69123;PMS5003;56232;53.384;-2.732;2024-01-30T12:08:21;5;5;
69123;PMS5003;56232;53.384;-2.732;2024-01-30T12:10:46;4;4;
69123;PMS5003;56232;53.384;-2.732;2024-01-30T12:13:12;2;2;
69123;PMS5003;56232;53.384;-2.732;2024-01-30T12:15:38;2;2;
69123;PMS5003;56232;53.384;-2.732;2024-01-30T12:18:04;4;3;
69123;PMS5003;56232;53.384;-2.732;2024-01-30T12:20:29;3;2;
69123;PMS5003;56232;53.384;-2.732;2024-01-30T12:22:55;1;1;
69123;PMS5003;56232;53.384;-2.732;2024-01-30T12:25:20;4;4;
69123;PMS5003;56232;53.384;-2.732;2024-01-30T12:27:47;4;4;
69123;PMS5003;56232;53.384;-2.732;2024-01-30T12:30:12;2;2;
69123;PMS5003;56232;53.384;-2.732;2024-01-30T12:32:39;2;2;
69123;PMS5003;56232;53.384;-2.732;2024-01-30T12:35:03;5;4;
69123;PMS5003;56232;53.384;-2.732;2024-01-30T12:37:29;2;2;
69123;PMS5003;56232;53.384;-2.732;2024-01-30T12:39:55;1;1;
69123;PMS5003;56232;53.384;-2.732;2024-01-30T12:42:20;3;2;
69123;PMS5003;56232;53.384;-2.732;2024-01-30T12:44:46;3;3;
69123;PMS5003;56232;53.384;-2.732;2024-01-30T12:47:12;4;3;
69123;PMS5003;56232;53.384;-2.732;2024-01-30T12:49:37;2;2;
69123;PMS5003;56232;53.384;-2.732;2024-01-30T12:52:03;4;3;
69123;PMS5003;56232;53.384;-2.732;2024-01-30T12:54:30;2;2;
69123;PMS5003;56232;53.384;-2.732;2024-01-30T12:56:54;1;1;
69123;PMS5003;56232;53.384;-2.732;2024-01-30T12:59:20;2;1;
69123;PMS5003;56232;53.384;-2.732;2024-01-30T13:01:46;3;2;
69123;PMS5003;56232;53.384;-2.732;2024-01-30T13:04:12;2;1;
69123;PMS5003;56232;53.384;-2.732;2024-01-30T13:06:37;1;1;
69123;PMS5003;56232;53.384;-2.732;2024-01-30T13:09:03;2;2;
69123;PMS5003;56232;53.384;-2.732;2024-01-30T13:11:29;2;2;
69123;PMS5003;56232;53.384;-2.732;2024-01-30T13:13:54;2;1;
69123;PMS5003;56232;53.384;-2.732;2024-01-30T13:16:20;1;1;
69123;PMS5003;56232;53.384;-2.732;2024-01-30T13:18:46;1;1;
69123;PMS5003;56232;53.384;-2.732;2024-01-30T13:21:12;2;2;
69123;PMS5003;56232;53.384;-2.732;2024-01-30T13:23:37;1;1;
69123;PMS5003;56232;53.384;-2.732;2024-01-30T13:26:03;1;1;
69123;PMS5003;56232;53.384;-2.732;2024-01-30T13:28:29;2;1;
69123;PMS5003;56232;53.384;-2.732;2024-01-30T13:30:54;1;1;
69123;PMS5003;56232;53.384;-2.732;2024-01-30T13:33:20;1;1;
69123;PMS5003;56232;53.384;-2.732;2024-01-30T13:35:46;0;0;
69123;PMS5003;56232;53.384;-2.732;2024-01-30T13:38:11;2;1;
69123;PMS5003;56232;53.384;-2.732;2024-01-30T13:40:37;1;1;
69123;PMS5003;56232;53.384;-2.732;2024-01-30T13:43:02;2;1;
69123;PMS5003;56232;53.384;-2.732;2024-01-30T13:45:28;0;0;
69123;PMS5003;56232;53.384;-2.732;2024-01-30T13:47:53;2;1;
69123;PMS5003;56232;53.384;-2.732;2024-01-30T13:50:19;0;0;
69123;PMS5003;56232;53.384;-2.732;2024-01-30T13:52:45;2;2;
69123;PMS5003;56232;53.384;-2.732;2024-01-30T13:55:11;0;0;
69123;PMS5003;56232;53.384;-2.732;2024-01-30T13:57:36;1;0;
69123;PMS5003;56232;53.384;-2.732;2024-01-30T14:00:02;1;1;
69123;PMS5003;56232;53.384;-2.732;2024-01-30T14:02:28;0;0;
69123;PMS5003;56232;53.384;-2.732;2024-01-30T14:04:53;1;0;
69123;PMS5003;56232;53.384;-2.732;2024-01-30T14:07:19;1;1;
69123;PMS5003;56232;53.384;-2.732;2024-01-30T14:09:44;0;0;
69123;PMS5003;56232;53.384;-2.732;2024-01-30T14:12:10;2;1;
69123;PMS5003;56232;53.384;-2.732;2024-01-30T14:14:35;1;1;
69123;PMS5003;56232;53.384;-2.732;2024-01-30T14:17:01;2;1;
69123;PMS5003;56232;53.384;-2.732;2024-01-30T14:19:26;5;1;
69123;PMS5003;56232;53.384;-2.732;2024-01-30T14:21:52;2;1;
69123;PMS5003;56232;53.384;-2.732;2024-01-30T14:24:17;1;1;
69123;PMS5003;56232;53.384;-2.732;2024-01-30T14:26:43;0;0;
69123;PMS5003;56232;53.384;-2.732;2024-01-30T14:29:09;1;1;
69123;PMS5003;56232;53.384;-2.732;2024-01-30T14:31:34;2;1;
69123;PMS5003;56232;53.384;-2.732;2024-01-30T14:34:00;2;2;
69123;PMS5003;56232;53.384;-2.732;2024-01-30T14:36:27;2;1;
69123;PMS5003;56232;53.384;-2.732;2024-01-30T14:38:52;1;1;
69123;PMS5003;56232;53.384;-2.732;2024-01-30T14:41:17;1;1;
69123;PMS5003;56232;53.384;-2.732;2024-01-30T14:43:43;2;2;
69123;PMS5003;56232;53.384;-2.732;2024-01-30T14:46:09;1;1;
69123;PMS5003;56232;53.384;-2.732;2024-01-30T14:48:34;5;2;
69123;PMS5003;56232;53.384;-2.732;2024-01-30T14:51:00;1;1;
69123;PMS5003;56232;53.384;-2.732;2024-01-30T14:53:25;1;1;
69123;PMS5003;56232;53.384;-2.732;2024-01-30T14:55:51;6;5;
69123;PMS5003;56232;53.384;-2.732;2024-01-30T14:58:17;2;2;
69123;PMS5003;56232;53.384;-2.732;2024-01-30T15:00:43;5;4;
69123;PMS5003;56232;53.384;-2.732;2024-01-30T15:03:08;7;5;
69123;PMS5003;56232;53.384;-2.732;2024-01-30T15:05:34;6;5;
69123;PMS5003;56232;53.384;-2.732;2024-01-30T15:08:00;5;5;
69123;PMS5003;56232;53.384;-2.732;2024-01-30T15:10:26;4;3;
69123;PMS5003;56232;53.384;-2.732;2024-01-30T15:12:51;4;3;
69123;PMS5003;56232;53.384;-2.732;2024-01-30T15:15:17;2;2;
69123;PMS5003;56232;53.384;-2.732;2024-01-30T15:17:43;3;2;
69123;PMS5003;56232;53.384;-2.732;2024-01-30T15:20:09;2;1;
69123;PMS5003;56232;53.384;-2.732;2024-01-30T15:22:34;3;2;
69123;PMS5003;56232;53.384;-2.732;2024-01-30T15:25:00;5;4;
69123;PMS5003;56232;53.384;-2.732;2024-01-30T15:27:26;1;1;
69123;PMS5003;56232;53.384;-2.732;2024-01-30T15:29:51;3;3;
69123;PMS5003;56232;53.384;-2.732;2024-01-30T15:32:17;3;3;
69123;PMS5003;56232;53.384;-2.732;2024-01-30T15:34:48;3;2;
69123;PMS5003;56232;53.384;-2.732;2024-01-30T15:37:08;3;2;
69123;PMS5003;56232;53.384;-2.732;2024-01-30T15:39:34;1;1;
69123;PMS5003;56232;53.384;-2.732;2024-01-30T15:42:00;3;3;
69123;PMS5003;56232;53.384;-2.732;2024-01-30T15:44:26;4;1;
69123;PMS5003;56232;53.384;-2.732;2024-01-30T15:46:51;4;3;
69123;PMS5003;56232;53.384;-2.732;2024-01-30T15:49:17;3;3;
69123;PMS5003;56232;53.384;-2.732;2024-01-30T15:51:43;1;1;
69123;PMS5003;56232;53.384;-2.732;2024-01-30T15:54:08;2;1;
69123;PMS5003;56232;53.384;-2.732;2024-01-30T15:56:34;3;3;
69123;PMS5003;56232;53.384;-2.732;2024-01-30T15:59:00;1;1;
69123;PMS5003;56232;53.384;-2.732;2024-01-30T16:01:25;3;2;
69123;PMS5003;56232;53.384;-2.732;2024-01-30T16:03:51;4;3;
69123;PMS5003;56232;53.384;-2.732;2024-01-30T16:06:17;3;3;
69123;PMS5003;56232;53.384;-2.732;2024-01-30T16:08:43;4;3;
69123;PMS5003;56232;53.384;-2.732;2024-01-30T16:11:08;1;1;
69123;PMS5003;56232;53.384;-2.732;2024-01-30T16:13:33;4;3;
69123;PMS5003;56232;53.384;-2.732;2024-01-30T16:15:59;4;3;
69123;PMS5003;56232;53.384;-2.732;2024-01-30T16:18:25;3;3;
69123;PMS5003;56232;53.384;-2.732;2024-01-30T16:20:51;3;3;
69123;PMS5003;56232;53.384;-2.732;2024-01-30T16:23:16;5;4;
69123;PMS5003;56232;53.384;-2.732;2024-01-30T16:25:43;3;2;
69123;PMS5003;56232;53.384;-2.732;2024-01-30T16:28:08;3;3;